Portada
Imágenes satélite Pronóstico 15 díasClimaPredicción Marítima Ciclones Rayo AeropuertosFAQ Noticias Acerca
El tiempo : Europa África América del Norte América del Sur Asia Australia-Oceanía Otros
Idiomas Contacto

Chichén Itzá, México

latitud: 20-38-30N, longitud: 088-26-58W, altitud: 31 m


METAR: MMCT 221744Z 00000KT 8SM BKN020 BKN080 30/26 A2996 RMK 8/470 MSGTX MMMD
TAF: falta

Hora: 13:15 (18:15 UTC)

Observación

El informe se hizo hace 31 minutos, a las 17:44 UTC  
Viento calma
Temperatura 30°C
Humedad 79%
Presión 1015 hPa
Visibilidad 12.9 km
Cielo nuboso a una altura de 2000 ft
Cielo nuboso a una altura de 8000 ft

Cambiar las unidades
La información que se ofrece en estas páginas está sujeta a una cláusula de exención de responsabilidad
El tiempo : Europa África América del Norte América del Sur Asia Australia-Oceanía Otros
Imágenes satélite Pronóstico 15 díasClimaPredicción Marítima Ciclones Rayo AeropuertosFAQ Idiomas Contacto Noticias Acerca